Latest Weather Observations for Ocean Reef

IDW60801

Issued at 1:13 pm WST Friday 16 November 2018 (issued every 10 minutes, with the page automatically refreshed every 10 minutes)

About weather observations | Map of weather stations | Latest weather observations for WA | Other Formats
Station Details ID: 009214 Name: OCEAN REEF Lat: -31.76 Lon: 115.73 Height: 10.0 m
Data from the previous 72 hours. | See also: Recent months at Ocean Reef
Date/Time
WST
Temp
°C
App
Temp
°C
Dew
Point
°C
Rel
Hum
%
Delta-T
°C
Wind Press
QNH
hPa
Press
MSL
hPa
Rain since
9am
mm
Dir  Spd
km/h
Gust
km/h
Spd
kts
Gust
kts
16/01:00pm - - - - - S 24 30 13 16 - - -
16/12:30pm - - - - - S 22 30 12 16 - - -
16/12:00pm - - - - - S 20 26 11 14 - - -
16/11:30am - - - - - SW 24 33 13 18 - - -
16/11:00am - - - - - ENE 15 22 8 12 - - -
16/10:30am - - - - - ENE 15 20 8 11 - - -
16/10:00am - - - - - ESE 15 24 8 13 - - -
16/09:30am - - - - - E 17 28 9 15 - - -
16/09:00am - - - - - ESE 17 24 9 13 - - -
16/08:30am - - - - - SE 17 28 9 15 - - -
16/08:00am - - - - - ESE 15 22 8 12 - - -
16/07:30am - - - - - ESE 15 26 8 14 - - -
16/07:00am - - - - - ESE 15 26 8 14 - - -
16/06:30am - - - - - ESE 13 19 7 10 - - -
16/06:00am - - - - - E 17 28 9 15 - - -
16/05:30am - - - - - ESE 17 26 9 14 - - -
16/05:00am - - - - - ESE 17 26 9 14 - - -
16/04:30am - - - - - SE 13 20 7 11 - - -
16/04:00am - - - - - SE 17 30 9 16 - - -
16/03:30am - - - - - ESE 13 22 7 12 - - -
16/03:00am - - - - - ESE 22 33 12 18 - - -
16/02:30am - - - - - E 26 39 14 21 - - -
16/02:00am - - - - - E 30 39 16 21 - - -
16/01:30am - - - - - E 32 46 17 25 - - -
16/01:16am - - - - - E 30 48 16 26 - - -
16/01:00am - - - - - E 33 48 18 26 - - -
16/12:44am - - - - - E 33 52 18 28 - - -
16/12:30am - - - - - E 32 48 17 26 - - -
16/12:00am - - - - - E 37 56 20 30 - - -
 
Date/Time
WST
Temp
°C
App
Temp
°C
Dew
Point
°C
Rel
Hum
%
Delta-T
°C
Wind Press
QNH
hPa
Press
MSL
hPa
Rain since
9am
mm
Dir  Spd
km/h
Gust
km/h
Spd
kts
Gust
kts
15/11:50pm - - - - - E 32 57 17 31 - - -
15/11:30pm - - - - - E 24 33 13 18 - - -
15/11:01pm - - - - - ESE 28 46 15 25 - - -
15/11:00pm - - - - - ESE 30 46 16 25 - - -
15/10:53pm - - - - - ESE 28 46 15 25 - - -
15/10:30pm - - - - - SE 13 15 7 8 - - -
15/10:00pm - - - - - SSE 13 17 7 9 - - -
15/09:30pm - - - - - S 15 19 8 10 - - -
15/09:00pm - - - - - S 17 26 9 14 - - -
15/08:30pm - - - - - S 24 28 13 15 - - -
15/08:00pm - - - - - S 22 26 12 14 - - -
15/07:30pm - - - - - S 22 30 12 16 - - -
15/07:00pm - - - - - S 28 37 15 20 - - -
15/06:30pm - - - - - S 32 37 17 20 - - -
15/06:00pm - - - - - S 30 37 16 20 - - -
15/05:30pm - - - - - S 32 39 17 21 - - -
15/05:00pm - - - - - S 32 39 17 21 - - -
15/04:30pm - - - - - S 33 43 18 23 - - -
15/04:00pm - - - - - S 35 46 19 25 - - -
15/03:30pm - - - - - S 35 46 19 25 - - -
15/03:00pm - - - - - S 33 41 18 22 - - -
15/02:30pm - - - - - S 32 41 17 22 - - -
15/02:00pm - - - - - S 35 43 19 23 - - -
15/01:30pm - - - - - S 32 41 17 22 - - -
15/01:00pm - - - - - S 28 35 15 19 - - -
15/12:30pm - - - - - S 26 33 14 18 - - -
15/12:00pm - - - - - S 28 35 15 19 - - -
15/11:30am - - - - - S 26 33 14 18 - - -
15/11:00am - - - - - S 26 32 14 17 - - -
15/10:30am - - - - - SSW 28 32 15 17 - - -
15/10:00am - - - - - S 24 28 13 15 - - -
15/09:30am - - - - - S 26 32 14 17 - - -
15/09:00am - - - - - S 24 30 13 16 - - -
15/08:30am - - - - - SSW 22 26 12 14 - - -
15/08:00am - - - - - SE 13 17 7 9 - - -
15/07:30am - - - - - SE 11 15 6 8 - - -
15/07:00am - - - - - ESE 15 19 8 10 - - -
15/06:30am - - - - - ESE 15 19 8 10 - - -
15/06:00am - - - - - ESE 15 17 8 9 - - -
15/05:30am - - - - - E 13 15 7 8 - - -
15/05:00am - - - - - ENE 11 15 6 8 - - -
15/04:30am - - - - - SE 15 19 8 10 - - -
15/04:00am - - - - - SE 15 17 8 9 - - -
15/03:30am - - - - - SSE 13 15 7 8 - - -
15/03:00am - - - - - SSE 13 15 7 8 - - -
15/02:30am - - - - - SSE 13 15 7 8 - - -
15/02:00am - - - - - SSE 9 11 5 6 - - -
15/01:30am - - - - - SSE 13 17 7 9 - - -
15/01:00am - - - - - S 9 11 5 6 - - -
15/12:30am - - - - - SE 9 11 5 6 - - -
15/12:00am - - - - - SE 13 13 7 7 - - -
 
Date/Time
WST
Temp
°C
App
Temp
°C
Dew
Point
°C
Rel
Hum
%
Delta-T
°C
Wind Press
QNH
hPa
Press
MSL
hPa
Rain since
9am
mm
Dir  Spd
km/h
Gust
km/h
Spd
kts
Gust
kts
14/11:30pm - - - - - S 11 13 6 7 - - -
14/11:00pm - - - - - SSE 13 13 7 7 - - -
14/10:30pm - - - - - SSE 15 17 8 9 - - -
14/10:00pm - - - - - S 13 17 7 9 - - -
14/09:30pm - - - - - SSE 19 22 10 12 - - -
14/09:00pm - - - - - S 26 33 14 18 - - -
14/08:30pm - - - - - S 22 30 12 16 - - -
14/08:00pm - - - - - S 28 33 15 18 - - -
14/07:30pm - - - - - S 28 35 15 19 - - -
14/07:00pm - - - - - S 33 41 18 22 - - -
14/06:30pm - - - - - S 32 37 17 20 - - -
14/06:00pm - - - - - S 30 35 16 19 - - -
14/05:30pm - - - - - S 30 37 16 20 - - -
14/05:00pm - - - - - S 30 39 16 21 - - -
14/04:30pm - - - - - S 30 39 16 21 - - -
14/04:00pm - - - - - S 33 39 18 21 - - -
14/03:30pm - - - - - S 28 37 15 20 - - -
14/03:00pm - - - - - S 30 35 16 19 - - -
14/02:30pm - - - - - S 30 37 16 20 - - -
14/02:00pm - - - - - S 32 35 17 19 - - -
14/01:30pm - - - - - S 28 35 15 19 - - -
14/01:00pm - - - - - S 28 33 15 18 - - -
14/12:30pm - - - - - S 28 33 15 18 - - -
14/12:00pm - - - - - SSW 30 37 16 20 - - -
14/11:30am - - - - - SSW 28 33 15 18 - - -
14/11:00am - - - - - SE 11 17 6 9 - - -
14/10:30am - - - - - E 15 26 8 14 - - -
14/10:00am - - - - - E 15 26 8 14 - - -
14/09:30am - - - - - ESE 17 28 9 15 - - -
14/09:00am - - - - - ESE 17 24 9 13 - - -
14/08:30am - - - - - ESE 17 26 9 14 - - -
14/08:00am - - - - - ESE 22 32 12 17 - - -
14/07:30am - - - - - ESE 22 32 12 17 - - -
14/07:00am - - - - - ESE 19 30 10 16 - - -
14/06:30am - - - - - SE 19 33 10 18 - - -
14/06:00am - - - - - SE 15 28 8 15 - - -
14/05:30am - - - - - SE 13 20 7 11 - - -
14/05:00am - - - - - SE 13 20 7 11 - - -
14/04:30am - - - - - SE 11 17 6 9 - - -
14/04:00am - - - - - SSE 9 11 5 6 - - -
14/03:30am - - - - - SSE 11 11 6 6 - - -
14/03:00am - - - - - SSE 11 13 6 7 - - -
14/02:30am - - - - - SSE 11 13 6 7 - - -
14/02:00am - - - - - SSE 13 15 7 8 - - -
14/01:30am - - - - - SSE 13 19 7 10 - - -
14/01:00am - - - - - SSE 17 24 9 13 - - -
14/12:30am - - - - - SSE 19 26 10 14 - - -
14/12:00am - - - - - SSE 20 26 11 14 - - -
 
Date/Time
WST
Temp
°C
App
Temp
°C
Dew
Point
°C
Rel
Hum
%
Delta-T
°C
Wind Press
QNH
hPa
Press
MSL
hPa
Rain since
9am
mm
Dir  Spd
km/h
Gust
km/h
Spd
kts
Gust
kts
13/11:30pm - - - - - SSE 19 22 10 12 - - -
13/11:00pm - - - - - S 28 35 15 19 - - -
13/10:30pm - - - - - S 30 37 16 20 - - -
13/10:00pm - - - - - S 33 41 18 22 - - -
13/09:30pm - - - - - S 35 41 19 22 - - -
13/09:00pm - - - - - S 33 43 18 23 - - -
13/08:30pm - - - - - S 35 43 19 23 - - -
13/08:00pm - - - - - S 35 44 19 24 - - -
13/07:30pm - - - - - S 37 46 20 25 - - -
13/07:00pm - - - - - S 35 43 19 23 - - -
13/06:30pm - - - - - S 33 41 18 22 - - -
13/06:00pm - - - - - S 32 37 17 20 - - -
13/05:30pm - - - - - SSW 33 37 18 20 - - -
13/05:00pm - - - - - SSW 32 37 17 20 - - -
13/04:30pm - - - - - SSW 30 35 16 19 - - -
13/04:00pm - - - - - SSW 30 35 16 19 - - -
13/03:30pm - - - - - SSW 30 35 16 19 - - -
13/03:00pm - - - - - SSW 32 35 17 19 - - -
13/02:30pm - - - - - SSW 28 32 15 17 - - -
13/02:00pm - - - - - SSW 30 33 16 18 - - -
13/01:30pm - - - - - SSW 22 26 12 14 - - -

Other Formats:

Comma delimited format used in spreadsheet applications
http://www.bom.gov.au/fwo/IDW60801/IDW60801.94607.axf

JavaScript Object Notation format (JSON) in row-major order
http://www.bom.gov.au/fwo/IDW60801/IDW60801.94607.json